createdAt,value
2018-09-26T00:01:00.256Z,215.82
2018-09-26T00:11:58.931Z,215.82
2018-09-26T00:22:59.739Z,215.82
2018-09-26T00:34:03.585Z,215.82
2018-09-26T00:45:07.237Z,215.82
2018-09-26T00:56:03.756Z,215.82
2018-09-26T01:07:01.914Z,215.82
2018-09-26T01:18:05.291Z,215.82
2018-09-26T01:29:07.746Z,215.82
2018-09-26T01:40:08.299Z,215.82
2018-09-26T01:51:10.558Z,215.82
2018-09-26T02:02:10.750Z,215.82
2018-09-26T02:13:06.819Z,1.53
2018-09-26T02:24:08.668Z,1.43
2018-09-26T02:35:05.863Z,1.43
2018-09-26T02:46:07.748Z,1.43
2018-09-26T02:57:09.969Z,1.43
2018-09-26T03:08:11.259Z,1.23
2018-09-26T03:19:11.820Z,1.04
2018-09-26T03:30:06.365Z,1.04
2018-09-26T03:41:05.762Z,1.04
2018-09-26T03:52:07.630Z,1.14
2018-09-26T04:03:09.816Z,1.04
2018-09-26T04:14:07.682Z,0.94
2018-09-26T04:25:10.474Z,0.74
2018-09-26T04:36:11.496Z,0.84
2018-09-26T04:47:14.496Z,1.04
2018-09-26T04:58:10.464Z,1.04
2018-09-26T05:09:10.926Z,1.14
2018-09-26T05:20:13.493Z,1.04
2018-09-26T05:31:14.835Z,1.24
2018-09-26T05:42:17.623Z,1.43
2018-09-26T05:53:20.214Z,1.82
2018-09-26T06:04:20.108Z,2.21
2018-09-26T06:15:22.806Z,2.70
2018-09-26T06:26:26.600Z,3.29
2018-09-26T06:37:29.925Z,3.87
2018-09-26T06:48:33.140Z,4.36
2018-09-26T06:59:36.516Z,5.44
2018-09-26T07:10:39.935Z,5.93
2018-09-26T07:21:38.564Z,6.32
2018-09-26T07:32:42.016Z,7.10
2018-09-26T07:43:44.486Z,7.49
2018-09-26T07:54:47.795Z,8.08
2018-09-26T08:05:50.160Z,8.47
2018-09-26T08:16:52.146Z,9.06
2018-09-26T08:27:54.936Z,9.45
2018-09-26T08:38:56.189Z,9.64
2018-09-26T08:49:59.213Z,10.04
2018-09-26T09:01:01.024Z,10.43
2018-09-26T09:12:03.627Z,10.62
2018-09-26T09:23:06.095Z,10.82
2018-09-26T09:34:08.603Z,11.31
2018-09-26T09:45:09.633Z,10.82
2018-09-26T09:56:12.498Z,12.09
2018-09-26T10:07:14.505Z,12.48
2018-09-26T10:18:15.528Z,12.68
2018-09-26T10:29:16.774Z,12.97
2018-09-26T10:40:18.641Z,13.17
2018-09-26T10:51:19.138Z,13.85
2018-09-26T11:02:17.510Z,15.71
2018-09-26T11:13:05.679Z,14.83
2018-09-26T11:24:03.768Z,14.63
2018-09-26T11:34:55.754Z,15.22
2018-09-26T11:45:57.027Z,15.12
2018-09-26T11:56:38.469Z,15.51
2018-09-26T12:07:34.817Z,15.81
2018-09-26T12:18:34.643Z,15.61
2018-09-26T12:29:34.252Z,15.91
2018-09-26T12:40:34.592Z,15.81
2018-09-26T12:51:36.196Z,16.98
2018-09-26T13:02:36.619Z,16.30
2018-09-26T13:13:38.802Z,16.88
2018-09-26T13:24:39.512Z,17.47
2018-09-26T13:35:31.561Z,18.55
2018-09-26T13:46:25.882Z,18.64
2018-09-26T13:57:25.807Z,18.06
2018-09-26T14:08:15.647Z,16.49
2018-09-26T14:19:09.308Z,15.12
2018-09-26T14:30:09.104Z,14.93
2018-09-26T14:41:09.151Z,14.73
2018-09-26T14:52:10.666Z,14.63
2018-09-26T15:03:09.665Z,14.34
2018-09-26T15:14:11.360Z,14.34
2018-09-26T15:25:10.510Z,14.34
2018-09-26T15:36:11.787Z,14.15
2018-09-26T15:47:11.410Z,14.24
2018-09-26T15:58:08.696Z,13.26
2018-09-26T16:09:10.016Z,13.07
2018-09-26T16:20:06.295Z,11.50
2018-09-26T16:31:00.589Z,10.62
2018-09-26T16:41:56.068Z,10.04
2018-09-26T16:52:55.607Z,9.55
2018-09-26T17:03:54.546Z,9.16
2018-09-26T17:14:53.265Z,8.86
2018-09-26T17:25:51.424Z,8.77
2018-09-26T17:36:45.745Z,8.37
2018-09-26T17:47:43.834Z,7.79
2018-09-26T17:58:44.168Z,7.59
2018-09-26T18:09:44.002Z,7.30
2018-09-26T18:20:43.626Z,6.91
2018-09-26T18:31:43.727Z,6.91
2018-09-26T18:42:43.436Z,6.61
2018-09-26T18:53:43.708Z,6.52
2018-09-26T19:04:39.139Z,6.52
2018-09-26T19:15:39.205Z,6.32
2018-09-26T19:26:34.827Z,6.12
2018-09-26T19:37:32.217Z,6.32
2018-09-26T19:48:32.199Z,6.22
2018-09-26T19:59:32.526Z,6.03
2018-09-26T20:10:28.690Z,6.12
2018-09-26T20:21:27.015Z,5.93
2018-09-26T20:32:27.798Z,5.83
2018-09-26T20:43:29.749Z,5.93
2018-09-26T20:54:31.663Z,5.83
2018-09-26T21:05:34.415Z,5.93
2018-09-26T21:16:36.051Z,5.73
2018-09-26T21:27:37.276Z,5.64
2018-09-26T21:38:38.181Z,5.54
2018-09-26T21:49:39.277Z,5.44
2018-09-26T22:00:40.809Z,5.24
2018-09-26T22:11:43.191Z,4.95
2018-09-26T22:22:44.036Z,5.05
2018-09-26T22:33:46.361Z,4.85
2018-09-26T22:44:48.845Z,4.75
2018-09-26T22:55:50.213Z,4.76
2018-09-26T23:06:51.835Z,4.46
2018-09-26T23:17:50.226Z,4.36
2018-09-26T23:28:51.306Z,4.27
2018-09-26T23:39:49.867Z,4.27
2018-09-26T23:50:52.623Z,3.97
